sensor_id;sensor_type;location;lat;lon;timestamp;P1;durP1;ratioP1;P2;durP2;ratioP2
43606;SDS011;29197;44.788;10.366;2023-12-28T00:00:26;35.83;;;24.33;;
43606;SDS011;29197;44.788;10.366;2023-12-28T00:03:15;36.23;;;24.07;;
43606;SDS011;29197;44.788;10.366;2023-12-28T00:06:04;38.77;;;25.33;;
43606;SDS011;29197;44.788;10.366;2023-12-28T00:08:53;38.15;;;23.15;;
43606;SDS011;29197;44.788;10.366;2023-12-28T00:11:56;36.47;;;23.37;;
43606;SDS011;29197;44.788;10.366;2023-12-28T00:14:46;35.30;;;24.33;;
43606;SDS011;29197;44.788;10.366;2023-12-28T00:17:35;35.67;;;24.17;;
43606;SDS011;29197;44.788;10.366;2023-12-28T00:20:24;36.07;;;23.60;;
43606;SDS011;29197;44.788;10.366;2023-12-28T00:23:13;35.53;;;23.20;;
43606;SDS011;29197;44.788;10.366;2023-12-28T00:26:02;36.40;;;24.33;;
43606;SDS011;29197;44.788;10.366;2023-12-28T00:28:51;38.13;;;25.07;;
43606;SDS011;29197;44.788;10.366;2023-12-28T00:31:42;37.10;;;24.10;;
43606;SDS011;29197;44.788;10.366;2023-12-28T00:34:31;33.50;;;23.43;;
43606;SDS011;29197;44.788;10.366;2023-12-28T00:37:20;30.00;;;22.10;;
43606;SDS011;29197;44.788;10.366;2023-12-28T00:40:09;40.50;;;24.55;;
43606;SDS011;29197;44.788;10.366;2023-12-28T00:42:58;34.43;;;23.33;;
43606;SDS011;29197;44.788;10.366;2023-12-28T00:45:47;35.17;;;22.63;;
43606;SDS011;29197;44.788;10.366;2023-12-28T00:48:37;33.10;;;23.33;;
43606;SDS011;29197;44.788;10.366;2023-12-28T00:51:26;34.20;;;22.50;;
43606;SDS011;29197;44.788;10.366;2023-12-28T00:54:15;39.70;;;23.00;;
43606;SDS011;29197;44.788;10.366;2023-12-28T00:57:04;35.43;;;23.03;;
43606;SDS011;29197;44.788;10.366;2023-12-28T00:59:53;36.50;;;22.90;;
43606;SDS011;29197;44.788;10.366;2023-12-28T01:02:42;38.75;;;23.60;;
43606;SDS011;29197;44.788;10.366;2023-12-28T01:05:35;35.73;;;22.77;;
43606;SDS011;29197;44.788;10.366;2023-12-28T01:08:24;35.50;;;23.73;;
43606;SDS011;29197;44.788;10.366;2023-12-28T01:11:12;32.22;;;22.60;;
43606;SDS011;29197;44.788;10.366;2023-12-28T01:14:02;37.23;;;23.80;;
43606;SDS011;29197;44.788;10.366;2023-12-28T01:16:50;39.00;;;23.80;;
43606;SDS011;29197;44.788;10.366;2023-12-28T01:19:39;33.97;;;22.90;;
43606;SDS011;29197;44.788;10.366;2023-12-28T01:22:30;35.40;;;22.63;;
43606;SDS011;29197;44.788;10.366;2023-12-28T01:25:19;36.70;;;21.83;;
43606;SDS011;29197;44.788;10.366;2023-12-28T01:28:08;33.30;;;22.23;;
43606;SDS011;29197;44.788;10.366;2023-12-28T01:30:57;36.23;;;22.63;;
43606;SDS011;29197;44.788;10.366;2023-12-28T01:33:46;37.40;;;22.00;;
43606;SDS011;29197;44.788;10.366;2023-12-28T01:36:35;31.50;;;21.42;;
43606;SDS011;29197;44.788;10.366;2023-12-28T01:39:25;33.97;;;22.87;;
43606;SDS011;29197;44.788;10.366;2023-12-28T01:42:14;36.33;;;23.00;;
43606;SDS011;29197;44.788;10.366;2023-12-28T01:45:03;38.00;;;23.57;;
43606;SDS011;29197;44.788;10.366;2023-12-28T01:47:53;35.17;;;23.57;;
43606;SDS011;29197;44.788;10.366;2023-12-28T01:50:43;33.23;;;23.13;;
43606;SDS011;29197;44.788;10.366;2023-12-28T01:53:31;35.03;;;23.30;;
43606;SDS011;29197;44.788;10.366;2023-12-28T01:56:22;41.10;;;25.90;;
43606;SDS011;29197;44.788;10.366;2023-12-28T01:59:11;38.43;;;23.33;;
43606;SDS011;29197;44.788;10.366;2023-12-28T02:02:00;36.67;;;23.43;;
43606;SDS011;29197;44.788;10.366;2023-12-28T02:04:49;32.23;;;22.77;;
43606;SDS011;29197;44.788;10.366;2023-12-28T02:07:38;35.90;;;23.10;;
43606;SDS011;29197;44.788;10.366;2023-12-28T02:10:27;29.53;;;21.63;;
43606;SDS011;29197;44.788;10.366;2023-12-28T02:13:18;37.50;;;23.33;;
43606;SDS011;29197;44.788;10.366;2023-12-28T02:16:09;37.47;;;23.67;;
43606;SDS011;29197;44.788;10.366;2023-12-28T02:19:03;35.50;;;22.27;;
43606;SDS011;29197;44.788;10.366;2023-12-28T02:21:55;40.13;;;24.30;;
43606;SDS011;29197;44.788;10.366;2023-12-28T02:25:05;37.07;;;23.13;;
43606;SDS011;29197;44.788;10.366;2023-12-28T02:27:54;37.77;;;23.77;;
43606;SDS011;29197;44.788;10.366;2023-12-28T02:30:44;37.97;;;23.23;;
43606;SDS011;29197;44.788;10.366;2023-12-28T02:33:34;36.30;;;22.97;;
43606;SDS011;29197;44.788;10.366;2023-12-28T02:36:24;43.80;;;23.27;;
43606;SDS011;29197;44.788;10.366;2023-12-28T02:39:15;36.03;;;22.67;;
43606;SDS011;29197;44.788;10.366;2023-12-28T02:42:06;34.30;;;23.70;;
43606;SDS011;29197;44.788;10.366;2023-12-28T02:44:55;35.83;;;22.77;;
43606;SDS011;29197;44.788;10.366;2023-12-28T02:47:44;37.57;;;21.90;;
43606;SDS011;29197;44.788;10.366;2023-12-28T02:50:33;36.67;;;21.27;;
43606;SDS011;29197;44.788;10.366;2023-12-28T02:53:23;33.60;;;22.60;;
43606;SDS011;29197;44.788;10.366;2023-12-28T02:56:12;33.13;;;20.07;;
43606;SDS011;29197;44.788;10.366;2023-12-28T02:59:02;39.70;;;23.27;;
43606;SDS011;29197;44.788;10.366;2023-12-28T03:01:51;32.83;;;22.47;;
43606;SDS011;29197;44.788;10.366;2023-12-28T03:04:40;30.73;;;21.00;;
43606;SDS011;29197;44.788;10.366;2023-12-28T03:07:28;35.40;;;23.00;;
43606;SDS011;29197;44.788;10.366;2023-12-28T03:10:17;31.47;;;21.50;;
43606;SDS011;29197;44.788;10.366;2023-12-28T03:13:06;31.40;;;20.27;;
43606;SDS011;29197;44.788;10.366;2023-12-28T03:15:57;30.40;;;20.87;;
43606;SDS011;29197;44.788;10.366;2023-12-28T03:18:46;30.30;;;20.87;;
43606;SDS011;29197;44.788;10.366;2023-12-28T03:21:38;31.03;;;21.50;;
43606;SDS011;29197;44.788;10.366;2023-12-28T03:24:27;31.63;;;21.03;;
43606;SDS011;29197;44.788;10.366;2023-12-28T03:27:16;34.60;;;21.67;;
43606;SDS011;29197;44.788;10.366;2023-12-28T03:30:05;34.47;;;20.87;;
43606;SDS011;29197;44.788;10.366;2023-12-28T03:32:56;34.70;;;20.77;;
43606;SDS011;29197;44.788;10.366;2023-12-28T03:35:45;31.93;;;21.60;;
43606;SDS011;29197;44.788;10.366;2023-12-28T03:38:33;35.07;;;22.60;;
43606;SDS011;29197;44.788;10.366;2023-12-28T03:41:22;30.80;;;22.47;;
43606;SDS011;29197;44.788;10.366;2023-12-28T03:44:11;32.80;;;21.17;;
43606;SDS011;29197;44.788;10.366;2023-12-28T03:47:00;30.80;;;20.10;;
43606;SDS011;29197;44.788;10.366;2023-12-28T03:49:50;37.07;;;21.70;;
43606;SDS011;29197;44.788;10.366;2023-12-28T03:52:39;31.77;;;21.87;;
43606;SDS011;29197;44.788;10.366;2023-12-28T03:55:28;33.60;;;21.47;;
43606;SDS011;29197;44.788;10.366;2023-12-28T03:58:17;36.07;;;21.30;;
43606;SDS011;29197;44.788;10.366;2023-12-28T04:01:06;31.90;;;20.93;;
43606;SDS011;29197;44.788;10.366;2023-12-28T04:03:55;32.77;;;20.63;;
43606;SDS011;29197;44.788;10.366;2023-12-28T04:06:46;33.87;;;19.67;;
43606;SDS011;29197;44.788;10.366;2023-12-28T04:09:35;32.97;;;19.90;;
43606;SDS011;29197;44.788;10.366;2023-12-28T04:12:24;29.23;;;19.63;;
43606;SDS011;29197;44.788;10.366;2023-12-28T04:15:15;27.17;;;17.57;;
43606;SDS011;29197;44.788;10.366;2023-12-28T04:18:04;26.70;;;17.47;;
43606;SDS011;29197;44.788;10.366;2023-12-28T04:20:53;26.07;;;16.83;;
43606;SDS011;29197;44.788;10.366;2023-12-28T04:23:44;23.13;;;16.10;;
43606;SDS011;29197;44.788;10.366;2023-12-28T04:26:33;28.87;;;16.23;;
43606;SDS011;29197;44.788;10.366;2023-12-28T04:29:22;29.30;;;16.13;;
43606;SDS011;29197;44.788;10.366;2023-12-28T04:32:11;25.53;;;15.97;;
43606;SDS011;29197;44.788;10.366;2023-12-28T04:35:00;27.37;;;17.07;;
43606;SDS011;29197;44.788;10.366;2023-12-28T04:37:50;21.43;;;15.20;;
43606;SDS011;29197;44.788;10.366;2023-12-28T04:40:40;24.50;;;16.13;;
43606;SDS011;29197;44.788;10.366;2023-12-28T04:43:29;24.20;;;16.07;;
43606;SDS011;29197;44.788;10.366;2023-12-28T04:46:18;23.40;;;15.90;;
43606;SDS011;29197;44.788;10.366;2023-12-28T04:49:07;28.97;;;17.87;;
43606;SDS011;29197;44.788;10.366;2023-12-28T04:51:56;25.10;;;15.23;;
43606;SDS011;29197;44.788;10.366;2023-12-28T04:54:47;27.87;;;16.23;;
43606;SDS011;29197;44.788;10.366;2023-12-28T04:57:37;24.90;;;15.17;;
43606;SDS011;29197;44.788;10.366;2023-12-28T05:00:26;29.07;;;15.87;;
43606;SDS011;29197;44.788;10.366;2023-12-28T05:03:15;31.10;;;16.23;;
43606;SDS011;29197;44.788;10.366;2023-12-28T05:06:04;23.07;;;15.47;;
43606;SDS011;29197;44.788;10.366;2023-12-28T05:08:53;22.03;;;14.10;;
43606;SDS011;29197;44.788;10.366;2023-12-28T05:11:42;23.23;;;14.33;;
43606;SDS011;29197;44.788;10.366;2023-12-28T05:14:32;25.67;;;14.03;;
43606;SDS011;29197;44.788;10.366;2023-12-28T05:17:21;19.70;;;13.67;;
43606;SDS011;29197;44.788;10.366;2023-12-28T05:20:10;23.73;;;14.37;;
43606;SDS011;29197;44.788;10.366;2023-12-28T05:22:59;21.63;;;14.10;;
43606;SDS011;29197;44.788;10.366;2023-12-28T05:25:48;25.93;;;14.33;;
43606;SDS011;29197;44.788;10.366;2023-12-28T05:28:37;20.50;;;14.10;;
43606;SDS011;29197;44.788;10.366;2023-12-28T05:31:27;21.37;;;13.70;;
43606;SDS011;29197;44.788;10.366;2023-12-28T05:34:16;20.03;;;13.60;;
43606;SDS011;29197;44.788;10.366;2023-12-28T05:37:05;24.27;;;15.67;;
43606;SDS011;29197;44.788;10.366;2023-12-28T05:39:54;20.70;;;13.47;;
43606;SDS011;29197;44.788;10.366;2023-12-28T05:42:47;21.50;;;14.10;;
43606;SDS011;29197;44.788;10.366;2023-12-28T05:45:36;23.80;;;14.10;;
43606;SDS011;29197;44.788;10.366;2023-12-28T05:48:26;24.13;;;13.90;;
43606;SDS011;29197;44.788;10.366;2023-12-28T05:51:15;19.50;;;13.73;;
43606;SDS011;29197;44.788;10.366;2023-12-28T05:54:05;21.07;;;13.63;;
43606;SDS011;29197;44.788;10.366;2023-12-28T05:56:55;18.83;;;13.07;;
43606;SDS011;29197;44.788;10.366;2023-12-28T05:59:46;22.07;;;13.93;;
43606;SDS011;29197;44.788;10.366;2023-12-28T06:02:35;18.43;;;12.40;;
43606;SDS011;29197;44.788;10.366;2023-12-28T06:05:25;21.00;;;13.43;;
43606;SDS011;29197;44.788;10.366;2023-12-28T06:08:14;20.90;;;13.47;;
43606;SDS011;29197;44.788;10.366;2023-12-28T06:11:03;19.73;;;13.03;;
43606;SDS011;29197;44.788;10.366;2023-12-28T06:13:52;21.73;;;13.00;;
43606;SDS011;29197;44.788;10.366;2023-12-28T06:16:41;24.07;;;13.07;;
43606;SDS011;29197;44.788;10.366;2023-12-28T06:19:30;20.17;;;12.30;;
43606;SDS011;29197;44.788;10.366;2023-12-28T06:22:21;19.63;;;12.77;;
43606;SDS011;29197;44.788;10.366;2023-12-28T06:25:14;21.63;;;12.83;;
43606;SDS011;29197;44.788;10.366;2023-12-28T06:28:03;22.17;;;13.73;;
43606;SDS011;29197;44.788;10.366;2023-12-28T06:30:52;20.07;;;13.10;;
43606;SDS011;29197;44.788;10.366;2023-12-28T06:33:41;23.57;;;12.73;;
43606;SDS011;29197;44.788;10.366;2023-12-28T06:36:31;21.30;;;13.43;;
43606;SDS011;29197;44.788;10.366;2023-12-28T06:39:21;26.10;;;15.10;;
43606;SDS011;29197;44.788;10.366;2023-12-28T06:42:10;19.73;;;13.73;;
43606;SDS011;29197;44.788;10.366;2023-12-28T06:44:59;27.27;;;15.40;;
43606;SDS011;29197;44.788;10.366;2023-12-28T06:47:48;23.57;;;14.40;;
43606;SDS011;29197;44.788;10.366;2023-12-28T06:50:37;24.97;;;14.20;;
43606;SDS011;29197;44.788;10.366;2023-12-28T06:53:26;26.77;;;16.33;;
43606;SDS011;29197;44.788;10.366;2023-12-28T06:56:17;29.83;;;16.20;;
43606;SDS011;29197;44.788;10.366;2023-12-28T06:59:05;22.67;;;15.37;;
43606;SDS011;29197;44.788;10.366;2023-12-28T07:01:58;24.83;;;15.77;;
43606;SDS011;29197;44.788;10.366;2023-12-28T07:04:47;25.53;;;17.03;;
43606;SDS011;29197;44.788;10.366;2023-12-28T07:07:36;26.73;;;17.77;;
43606;SDS011;29197;44.788;10.366;2023-12-28T07:10:25;27.23;;;17.03;;
43606;SDS011;29197;44.788;10.366;2023-12-28T07:13:15;23.93;;;15.20;;
43606;SDS011;29197;44.788;10.366;2023-12-28T07:16:04;28.80;;;15.83;;
43606;SDS011;29197;44.788;10.366;2023-12-28T07:18:54;28.57;;;16.80;;
43606;SDS011;29197;44.788;10.366;2023-12-28T07:21:43;23.97;;;14.80;;
43606;SDS011;29197;44.788;10.366;2023-12-28T07:24:32;20.77;;;15.00;;
43606;SDS011;29197;44.788;10.366;2023-12-28T07:27:21;28.43;;;16.97;;
43606;SDS011;29197;44.788;10.366;2023-12-28T07:30:12;26.90;;;16.17;;
43606;SDS011;29197;44.788;10.366;2023-12-28T07:33:03;25.90;;;15.80;;
43606;SDS011;29197;44.788;10.366;2023-12-28T07:35:52;31.40;;;17.43;;
43606;SDS011;29197;44.788;10.366;2023-12-28T07:38:41;30.00;;;17.67;;
43606;SDS011;29197;44.788;10.366;2023-12-28T07:41:30;25.47;;;17.23;;
43606;SDS011;29197;44.788;10.366;2023-12-28T07:44:19;25.30;;;16.43;;
43606;SDS011;29197;44.788;10.366;2023-12-28T07:47:09;26.37;;;16.70;;
43606;SDS011;29197;44.788;10.366;2023-12-28T07:49:59;23.43;;;15.80;;
43606;SDS011;29197;44.788;10.366;2023-12-28T07:52:49;25.27;;;16.63;;
43606;SDS011;29197;44.788;10.366;2023-12-28T07:55:38;30.87;;;19.60;;
43606;SDS011;29197;44.788;10.366;2023-12-28T07:58:27;30.67;;;19.07;;
43606;SDS011;29197;44.788;10.366;2023-12-28T08:01:15;33.03;;;19.03;;
43606;SDS011;29197;44.788;10.366;2023-12-28T08:04:07;30.53;;;19.70;;
43606;SDS011;29197;44.788;10.366;2023-12-28T08:06:56;27.40;;;18.27;;
43606;SDS011;29197;44.788;10.366;2023-12-28T08:09:45;36.87;;;20.67;;
43606;SDS011;29197;44.788;10.366;2023-12-28T08:12:34;27.97;;;19.20;;
43606;SDS011;29197;44.788;10.366;2023-12-28T08:15:23;31.20;;;18.90;;
43606;SDS011;29197;44.788;10.366;2023-12-28T08:18:12;32.97;;;18.80;;
43606;SDS011;29197;44.788;10.366;2023-12-28T08:21:03;30.50;;;18.67;;
43606;SDS011;29197;44.788;10.366;2023-12-28T08:23:52;29.10;;;17.60;;
43606;SDS011;29197;44.788;10.366;2023-12-28T08:26:41;25.30;;;17.03;;
43606;SDS011;29197;44.788;10.366;2023-12-28T08:29:30;25.93;;;16.97;;
43606;SDS011;29197;44.788;10.366;2023-12-28T08:32:18;25.73;;;16.70;;
43606;SDS011;29197;44.788;10.366;2023-12-28T08:35:07;30.63;;;18.73;;
43606;SDS011;29197;44.788;10.366;2023-12-28T08:37:58;33.33;;;19.70;;
43606;SDS011;29197;44.788;10.366;2023-12-28T08:40:47;36.03;;;19.07;;
43606;SDS011;29197;44.788;10.366;2023-12-28T08:43:36;36.13;;;20.30;;
43606;SDS011;29197;44.788;10.366;2023-12-28T08:46:24;37.03;;;20.63;;
43606;SDS011;29197;44.788;10.366;2023-12-28T08:49:13;30.88;;;19.70;;
43606;SDS011;29197;44.788;10.366;2023-12-28T08:52:03;33.15;;;21.48;;
43606;SDS011;29197;44.788;10.366;2023-12-28T08:54:53;35.40;;;19.83;;
43606;SDS011;29197;44.788;10.366;2023-12-28T08:57:42;36.60;;;22.90;;
43606;SDS011;29197;44.788;10.366;2023-12-28T09:00:31;34.25;;;22.05;;
43606;SDS011;29197;44.788;10.366;2023-12-28T09:03:20;37.65;;;23.60;;
43606;SDS011;29197;44.788;10.366;2023-12-28T09:06:11;38.20;;;25.52;;
43606;SDS011;29197;44.788;10.366;2023-12-28T09:09:00;35.72;;;22.42;;
43606;SDS011;29197;44.788;10.366;2023-12-28T09:11:51;37.33;;;24.25;;
43606;SDS011;29197;44.788;10.366;2023-12-28T09:14:40;37.85;;;24.02;;
43606;SDS011;29197;44.788;10.366;2023-12-28T09:17:29;40.03;;;25.75;;
43606;SDS011;29197;44.788;10.366;2023-12-28T09:20:18;44.15;;;27.45;;
43606;SDS011;29197;44.788;10.366;2023-12-28T09:23:07;52.95;;;31.35;;
43606;SDS011;29197;44.788;10.366;2023-12-28T09:25:57;47.95;;;32.05;;
43606;SDS011;29197;44.788;10.366;2023-12-28T09:28:47;49.45;;;32.85;;
43606;SDS011;29197;44.788;10.366;2023-12-28T09:31:37;47.10;;;32.53;;
43606;SDS011;29197;44.788;10.366;2023-12-28T09:34:26;48.58;;;31.58;;
43606;SDS011;29197;44.788;10.366;2023-12-28T09:37:15;47.78;;;32.40;;
43606;SDS011;29197;44.788;10.366;2023-12-28T09:40:04;52.42;;;32.22;;
43606;SDS011;29197;44.788;10.366;2023-12-28T09:42:57;53.83;;;32.13;;
43606;SDS011;29197;44.788;10.366;2023-12-28T09:45:52;48.75;;;31.38;;
43606;SDS011;29197;44.788;10.366;2023-12-28T09:48:42;50.75;;;32.35;;
43606;SDS011;29197;44.788;10.366;2023-12-28T09:51:31;51.85;;;33.38;;
43606;SDS011;29197;44.788;10.366;2023-12-28T09:54:20;53.20;;;34.17;;
43606;SDS011;29197;44.788;10.366;2023-12-28T09:57:09;54.83;;;34.28;;
43606;SDS011;29197;44.788;10.366;2023-12-28T09:59:58;49.63;;;32.30;;
43606;SDS011;29197;44.788;10.366;2023-12-28T10:02:49;51.13;;;33.15;;
43606;SDS011;29197;44.788;10.366;2023-12-28T10:05:38;53.08;;;33.10;;
43606;SDS011;29197;44.788;10.366;2023-12-28T10:08:29;53.00;;;33.17;;
43606;SDS011;29197;44.788;10.366;2023-12-28T10:11:18;55.47;;;35.25;;
43606;SDS011;29197;44.788;10.366;2023-12-28T10:14:07;52.30;;;31.05;;
43606;SDS011;29197;44.788;10.366;2023-12-28T10:16:58;52.05;;;32.80;;
43606;SDS011;29197;44.788;10.366;2023-12-28T10:19:48;57.10;;;34.17;;
43606;SDS011;29197;44.788;10.366;2023-12-28T10:22:37;44.58;;;31.15;;
43606;SDS011;29197;44.788;10.366;2023-12-28T10:25:27;50.45;;;31.85;;
43606;SDS011;29197;44.788;10.366;2023-12-28T10:28:16;49.85;;;32.28;;
43606;SDS011;29197;44.788;10.366;2023-12-28T10:31:07;50.85;;;32.95;;
43606;SDS011;29197;44.788;10.366;2023-12-28T10:33:57;54.03;;;34.75;;
43606;SDS011;29197;44.788;10.366;2023-12-28T10:36:51;66.85;;;42.65;;
43606;SDS011;29197;44.788;10.366;2023-12-28T10:39:40;53.15;;;35.17;;
43606;SDS011;29197;44.788;10.366;2023-12-28T10:42:37;45.33;;;31.73;;
43606;SDS011;29197;44.788;10.366;2023-12-28T10:45:31;50.25;;;32.63;;
43606;SDS011;29197;44.788;10.366;2023-12-28T10:48:21;51.53;;;34.28;;
43606;SDS011;29197;44.788;10.366;2023-12-28T10:51:16;50.90;;;35.13;;
43606;SDS011;29197;44.788;10.366;2023-12-28T10:54:12;48.25;;;33.00;;
43606;SDS011;29197;44.788;10.366;2023-12-28T10:57:05;46.92;;;31.98;;
43606;SDS011;29197;44.788;10.366;2023-12-28T10:59:57;49.88;;;31.85;;
43606;SDS011;29197;44.788;10.366;2023-12-28T11:02:48;54.08;;;35.38;;
43606;SDS011;29197;44.788;10.366;2023-12-28T11:05:39;54.88;;;34.17;;
43606;SDS011;29197;44.788;10.366;2023-12-28T11:08:30;64.88;;;37.03;;
43606;SDS011;29197;44.788;10.366;2023-12-28T11:11:22;48.47;;;31.65;;
43606;SDS011;29197;44.788;10.366;2023-12-28T11:14:11;49.95;;;30.63;;
43606;SDS011;29197;44.788;10.366;2023-12-28T11:17:02;80.50;;;45.38;;
43606;SDS011;29197;44.788;10.366;2023-12-28T11:19:51;58.95;;;36.83;;
43606;SDS011;29197;44.788;10.366;2023-12-28T11:22:40;43.88;;;30.48;;
43606;SDS011;29197;44.788;10.366;2023-12-28T11:25:30;58.42;;;36.53;;
43606;SDS011;29197;44.788;10.366;2023-12-28T11:28:22;47.20;;;30.98;;
43606;SDS011;29197;44.788;10.366;2023-12-28T11:31:13;50.15;;;31.55;;
43606;SDS011;29197;44.788;10.366;2023-12-28T11:34:03;43.05;;;29.25;;
43606;SDS011;29197;44.788;10.366;2023-12-28T11:36:59;51.95;;;32.20;;
43606;SDS011;29197;44.788;10.366;2023-12-28T11:39:50;61.33;;;37.88;;
43606;SDS011;29197;44.788;10.366;2023-12-28T11:42:47;50.47;;;31.42;;
43606;SDS011;29197;44.788;10.366;2023-12-28T11:45:37;47.78;;;31.30;;
43606;SDS011;29197;44.788;10.366;2023-12-28T11:48:27;47.17;;;30.38;;
43606;SDS011;29197;44.788;10.366;2023-12-28T11:51:16;44.58;;;30.80;;
43606;SDS011;29197;44.788;10.366;2023-12-28T11:54:05;45.28;;;30.48;;
43606;SDS011;29197;44.788;10.366;2023-12-28T11:56:54;63.97;;;45.58;;
43606;SDS011;29197;44.788;10.366;2023-12-28T11:59:43;48.38;;;32.67;;
43606;SDS011;29197;44.788;10.366;2023-12-28T12:02:35;55.92;;;38.83;;
43606;SDS011;29197;44.788;10.366;2023-12-28T12:05:24;50.55;;;37.05;;
43606;SDS011;29197;44.788;10.366;2023-12-28T12:08:13;41.83;;;28.98;;
43606;SDS011;29197;44.788;10.366;2023-12-28T12:11:02;45.03;;;30.27;;
43606;SDS011;29197;44.788;10.366;2023-12-28T12:13:53;43.67;;;29.63;;
43606;SDS011;29197;44.788;10.366;2023-12-28T12:16:43;43.30;;;28.40;;
43606;SDS011;29197;44.788;10.366;2023-12-28T12:19:33;41.33;;;30.35;;
43606;SDS011;29197;44.788;10.366;2023-12-28T12:22:23;44.05;;;30.92;;
43606;SDS011;29197;44.788;10.366;2023-12-28T12:25:15;47.92;;;29.77;;
43606;SDS011;29197;44.788;10.366;2023-12-28T12:28:06;46.83;;;30.20;;
43606;SDS011;29197;44.788;10.366;2023-12-28T12:30:56;50.90;;;32.03;;
43606;SDS011;29197;44.788;10.366;2023-12-28T12:33:45;58.33;;;39.80;;
43606;SDS011;29197;44.788;10.366;2023-12-28T12:36:39;50.20;;;32.47;;
43606;SDS011;29197;44.788;10.366;2023-12-28T12:39:28;49.00;;;33.42;;
43606;SDS011;29197;44.788;10.366;2023-12-28T12:42:17;44.97;;;30.05;;
43606;SDS011;29197;44.788;10.366;2023-12-28T12:45:07;47.78;;;32.85;;
43606;SDS011;29197;44.788;10.366;2023-12-28T12:47:57;51.55;;;35.33;;
43606;SDS011;29197;44.788;10.366;2023-12-28T12:50:46;45.13;;;32.50;;
43606;SDS011;29197;44.788;10.366;2023-12-28T12:53:37;49.00;;;33.03;;
43606;SDS011;29197;44.788;10.366;2023-12-28T12:56:26;45.72;;;30.23;;
43606;SDS011;29197;44.788;10.366;2023-12-28T12:59:16;51.00;;;34.15;;
43606;SDS011;29197;44.788;10.366;2023-12-28T13:02:07;46.15;;;31.58;;
43606;SDS011;29197;44.788;10.366;2023-12-28T13:04:56;41.75;;;30.08;;
43606;SDS011;29197;44.788;10.366;2023-12-28T13:07:45;44.65;;;32.20;;
43606;SDS011;29197;44.788;10.366;2023-12-28T13:10:35;54.42;;;32.83;;
43606;SDS011;29197;44.788;10.366;2023-12-28T13:13:24;52.83;;;35.63;;
43606;SDS011;29197;44.788;10.366;2023-12-28T13:16:13;50.65;;;33.75;;
43606;SDS011;29197;44.788;10.366;2023-12-28T13:19:02;56.33;;;35.28;;
43606;SDS011;29197;44.788;10.366;2023-12-28T13:21:52;48.60;;;33.38;;
43606;SDS011;29197;44.788;10.366;2023-12-28T13:24:41;54.47;;;35.72;;
43606;SDS011;29197;44.788;10.366;2023-12-28T13:27:31;48.53;;;32.78;;
43606;SDS011;29197;44.788;10.366;2023-12-28T13:30:20;55.38;;;35.25;;
43606;SDS011;29197;44.788;10.366;2023-12-28T13:33:12;50.35;;;34.15;;
43606;SDS011;29197;44.788;10.366;2023-12-28T13:36:01;58.42;;;35.85;;
43606;SDS011;29197;44.788;10.366;2023-12-28T13:38:50;50.70;;;34.13;;
43606;SDS011;29197;44.788;10.366;2023-12-28T13:41:39;51.15;;;33.83;;
43606;SDS011;29197;44.788;10.366;2023-12-28T13:44:29;47.28;;;31.15;;
43606;SDS011;29197;44.788;10.366;2023-12-28T13:47:18;45.75;;;31.00;;
43606;SDS011;29197;44.788;10.366;2023-12-28T13:50:08;47.90;;;32.30;;
43606;SDS011;29197;44.788;10.366;2023-12-28T13:52:57;49.42;;;30.98;;
43606;SDS011;29197;44.788;10.366;2023-12-28T13:55:46;49.28;;;32.30;;
43606;SDS011;29197;44.788;10.366;2023-12-28T13:58:35;51.17;;;32.53;;
43606;SDS011;29197;44.788;10.366;2023-12-28T14:01:25;50.70;;;33.42;;
43606;SDS011;29197;44.788;10.366;2023-12-28T14:04:14;48.30;;;33.15;;
43606;SDS011;29197;44.788;10.366;2023-12-28T14:07:03;47.72;;;32.00;;
43606;SDS011;29197;44.788;10.366;2023-12-28T14:09:52;55.38;;;32.70;;
43606;SDS011;29197;44.788;10.366;2023-12-28T14:12:41;47.67;;;30.13;;
43606;SDS011;29197;44.788;10.366;2023-12-28T14:15:30;41.53;;;28.20;;
43606;SDS011;29197;44.788;10.366;2023-12-28T14:18:21;48.28;;;31.73;;
43606;SDS011;29197;44.788;10.366;2023-12-28T14:21:10;43.35;;;30.10;;
43606;SDS011;29197;44.788;10.366;2023-12-28T14:24:00;45.30;;;31.42;;
43606;SDS011;29197;44.788;10.366;2023-12-28T14:26:49;47.38;;;31.92;;
43606;SDS011;29197;44.788;10.366;2023-12-28T14:29:41;48.95;;;31.45;;
43606;SDS011;29197;44.788;10.366;2023-12-28T14:32:30;57.55;;;33.40;;
43606;SDS011;29197;44.788;10.366;2023-12-28T14:35:21;52.95;;;32.97;;
43606;SDS011;29197;44.788;10.366;2023-12-28T14:38:12;63.80;;;39.85;;
43606;SDS011;29197;44.788;10.366;2023-12-28T14:41:01;50.83;;;33.90;;
43606;SDS011;29197;44.788;10.366;2023-12-28T14:43:50;56.92;;;35.17;;
43606;SDS011;29197;44.788;10.366;2023-12-28T14:46:39;50.03;;;32.47;;
43606;SDS011;29197;44.788;10.366;2023-12-28T14:49:27;51.20;;;34.10;;
43606;SDS011;29197;44.788;10.366;2023-12-28T14:52:18;51.58;;;34.53;;
43606;SDS011;29197;44.788;10.366;2023-12-28T14:55:07;50.83;;;34.47;;
43606;SDS011;29197;44.788;10.366;2023-12-28T14:57:56;51.97;;;32.28;;
43606;SDS011;29197;44.788;10.366;2023-12-28T15:00:46;54.35;;;32.88;;
43606;SDS011;29197;44.788;10.366;2023-12-28T15:03:35;50.25;;;33.90;;
43606;SDS011;29197;44.788;10.366;2023-12-28T15:06:25;50.58;;;31.98;;
43606;SDS011;29197;44.788;10.366;2023-12-28T15:09:16;59.95;;;37.13;;
43606;SDS011;29197;44.788;10.366;2023-12-28T15:12:05;52.55;;;34.25;;
43606;SDS011;29197;44.788;10.366;2023-12-28T15:14:54;50.55;;;32.58;;
43606;SDS011;29197;44.788;10.366;2023-12-28T15:17:43;55.08;;;34.75;;
43606;SDS011;29197;44.788;10.366;2023-12-28T15:20:33;60.00;;;37.55;;
43606;SDS011;29197;44.788;10.366;2023-12-28T15:23:22;58.90;;;35.40;;
43606;SDS011;29197;44.788;10.366;2023-12-28T15:26:15;58.80;;;35.90;;
43606;SDS011;29197;44.788;10.366;2023-12-28T15:29:04;54.00;;;34.50;;
43606;SDS011;29197;44.788;10.366;2023-12-28T15:31:53;55.85;;;35.10;;
43606;SDS011;29197;44.788;10.366;2023-12-28T15:34:42;59.80;;;37.95;;
43606;SDS011;29197;44.788;10.366;2023-12-28T15:37:31;49.40;;;33.60;;
43606;SDS011;29197;44.788;10.366;2023-12-28T15:40:20;49.83;;;32.47;;
43606;SDS011;29197;44.788;10.366;2023-12-28T15:43:10;50.65;;;31.50;;
43606;SDS011;29197;44.788;10.366;2023-12-28T15:45:59;51.63;;;32.13;;
43606;SDS011;29197;44.788;10.366;2023-12-28T15:48:48;55.97;;;37.00;;
43606;SDS011;29197;44.788;10.366;2023-12-28T15:51:37;54.92;;;34.72;;
43606;SDS011;29197;44.788;10.366;2023-12-28T15:54:27;50.60;;;32.75;;
43606;SDS011;29197;44.788;10.366;2023-12-28T15:57:16;55.53;;;34.78;;
43606;SDS011;29197;44.788;10.366;2023-12-28T16:00:07;54.10;;;32.72;;
43606;SDS011;29197;44.788;10.366;2023-12-28T16:02:59;51.03;;;33.58;;
43606;SDS011;29197;44.788;10.366;2023-12-28T16:05:48;51.30;;;33.25;;
43606;SDS011;29197;44.788;10.366;2023-12-28T16:08:36;57.08;;;33.45;;
43606;SDS011;29197;44.788;10.366;2023-12-28T16:11:25;49.47;;;32.47;;
43606;SDS011;29197;44.788;10.366;2023-12-28T16:14:14;51.92;;;31.25;;
43606;SDS011;29197;44.788;10.366;2023-12-28T16:17:06;46.08;;;32.47;;